sensor_id;sensor_type;location;lat;lon;timestamp;P1;durP1;ratioP1;P2;durP2;ratioP2
76953;SDS011;65893;51.698;-0.292;2023-07-31T00:02:24;16.60;;;3.83;;
76953;SDS011;65893;51.698;-0.292;2023-07-31T00:04:50;11.23;;;3.38;;
76953;SDS011;65893;51.698;-0.292;2023-07-31T00:07:16;11.27;;;3.88;;
76953;SDS011;65893;51.698;-0.292;2023-07-31T00:09:43;15.02;;;3.53;;
76953;SDS011;65893;51.698;-0.292;2023-07-31T00:12:09;20.58;;;3.92;;
76953;SDS011;65893;51.698;-0.292;2023-07-31T00:14:35;16.95;;;3.55;;
76953;SDS011;65893;51.698;-0.292;2023-07-31T00:17:01;15.65;;;3.05;;
76953;SDS011;65893;51.698;-0.292;2023-07-31T00:19:27;16.08;;;3.33;;
76953;SDS011;65893;51.698;-0.292;2023-07-31T00:21:53;9.35;;;2.05;;
76953;SDS011;65893;51.698;-0.292;2023-07-31T00:24:19;10.93;;;2.90;;
76953;SDS011;65893;51.698;-0.292;2023-07-31T00:26:45;8.57;;;2.10;;
76953;SDS011;65893;51.698;-0.292;2023-07-31T00:29:11;9.70;;;2.45;;
76953;SDS011;65893;51.698;-0.292;2023-07-31T00:31:37;8.90;;;2.13;;
76953;SDS011;65893;51.698;-0.292;2023-07-31T00:34:03;8.18;;;2.65;;
76953;SDS011;65893;51.698;-0.292;2023-07-31T00:36:29;7.03;;;2.47;;
76953;SDS011;65893;51.698;-0.292;2023-07-31T00:38:55;8.68;;;2.15;;
76953;SDS011;65893;51.698;-0.292;2023-07-31T00:41:21;10.98;;;2.45;;
76953;SDS011;65893;51.698;-0.292;2023-07-31T00:43:47;6.00;;;1.80;;
76953;SDS011;65893;51.698;-0.292;2023-07-31T00:46:13;5.95;;;1.67;;
76953;SDS011;65893;51.698;-0.292;2023-07-31T00:48:39;8.63;;;2.35;;
76953;SDS011;65893;51.698;-0.292;2023-07-31T00:51:06;6.20;;;1.40;;
76953;SDS011;65893;51.698;-0.292;2023-07-31T00:53:32;6.53;;;1.50;;
76953;SDS011;65893;51.698;-0.292;2023-07-31T00:55:58;4.63;;;1.50;;
76953;SDS011;65893;51.698;-0.292;2023-07-31T00:58:24;6.95;;;1.67;;
76953;SDS011;65893;51.698;-0.292;2023-07-31T01:00:50;8.80;;;1.90;;
76953;SDS011;65893;51.698;-0.292;2023-07-31T01:03:17;3.53;;;1.20;;
76953;SDS011;65893;51.698;-0.292;2023-07-31T01:05:46;4.65;;;1.23;;
76953;SDS011;65893;51.698;-0.292;2023-07-31T01:10:46;6.05;;;1.42;;
76953;SDS011;65893;51.698;-0.292;2023-07-31T01:13:14;5.75;;;1.55;;
76953;SDS011;65893;51.698;-0.292;2023-07-31T01:15:40;6.75;;;1.20;;
76953;SDS011;65893;51.698;-0.292;2023-07-31T01:18:06;5.43;;;0.88;;
76953;SDS011;65893;51.698;-0.292;2023-07-31T01:20:32;3.83;;;1.17;;
76953;SDS011;65893;51.698;-0.292;2023-07-31T01:23:08;5.85;;;0.93;;
76953;SDS011;65893;51.698;-0.292;2023-07-31T01:28:10;3.80;;;0.82;;
76953;SDS011;65893;51.698;-0.292;2023-07-31T01:30:39;2.08;;;0.73;;
76953;SDS011;65893;51.698;-0.292;2023-07-31T01:33:07;5.65;;;1.20;;
76953;SDS011;65893;51.698;-0.292;2023-07-31T01:35:34;3.38;;;0.80;;
76953;SDS011;65893;51.698;-0.292;2023-07-31T01:38:00;2.22;;;1.00;;
76953;SDS011;65893;51.698;-0.292;2023-07-31T01:40:26;3.00;;;0.40;;
76953;SDS011;65893;51.698;-0.292;2023-07-31T01:42:52;4.00;;;1.08;;
76953;SDS011;65893;51.698;-0.292;2023-07-31T01:45:18;1.10;;;0.55;;
76953;SDS011;65893;51.698;-0.292;2023-07-31T01:47:44;6.35;;;1.40;;
76953;SDS011;65893;51.698;-0.292;2023-07-31T01:50:10;1.85;;;0.50;;
76953;SDS011;65893;51.698;-0.292;2023-07-31T01:52:36;6.85;;;0.85;;
76953;SDS011;65893;51.698;-0.292;2023-07-31T01:55:02;2.95;;;0.90;;
76953;SDS011;65893;51.698;-0.292;2023-07-31T01:57:28;3.13;;;0.80;;
76953;SDS011;65893;51.698;-0.292;2023-07-31T01:59:54;4.22;;;0.82;;
76953;SDS011;65893;51.698;-0.292;2023-07-31T02:02:21;2.72;;;0.68;;
76953;SDS011;65893;51.698;-0.292;2023-07-31T02:04:48;2.50;;;0.90;;
76953;SDS011;65893;51.698;-0.292;2023-07-31T02:07:14;3.00;;;1.00;;
76953;SDS011;65893;51.698;-0.292;2023-07-31T02:09:40;5.95;;;1.48;;
76953;SDS011;65893;51.698;-0.292;2023-07-31T02:12:06;3.08;;;0.90;;
76953;SDS011;65893;51.698;-0.292;2023-07-31T02:14:33;3.78;;;0.93;;
76953;SDS011;65893;51.698;-0.292;2023-07-31T02:16:59;3.80;;;0.90;;
76953;SDS011;65893;51.698;-0.292;2023-07-31T02:19:25;4.10;;;1.08;;
76953;SDS011;65893;51.698;-0.292;2023-07-31T02:21:52;4.28;;;0.90;;
76953;SDS011;65893;51.698;-0.292;2023-07-31T02:24:18;9.50;;;1.00;;
76953;SDS011;65893;51.698;-0.292;2023-07-31T02:26:44;4.28;;;1.20;;
76953;SDS011;65893;51.698;-0.292;2023-07-31T02:29:10;3.33;;;1.10;;
76953;SDS011;65893;51.698;-0.292;2023-07-31T02:31:36;3.95;;;1.17;;
76953;SDS011;65893;51.698;-0.292;2023-07-31T02:34:02;6.18;;;1.45;;
76953;SDS011;65893;51.698;-0.292;2023-07-31T02:36:28;10.95;;;1.63;;
76953;SDS011;65893;51.698;-0.292;2023-07-31T02:38:54;1.52;;;0.50;;
76953;SDS011;65893;51.698;-0.292;2023-07-31T02:41:20;3.97;;;0.63;;
76953;SDS011;65893;51.698;-0.292;2023-07-31T02:43:49;7.88;;;1.63;;
76953;SDS011;65893;51.698;-0.292;2023-07-31T02:46:15;6.18;;;1.27;;
76953;SDS011;65893;51.698;-0.292;2023-07-31T02:48:41;1.67;;;0.50;;
76953;SDS011;65893;51.698;-0.292;2023-07-31T02:51:07;5.32;;;1.25;;
76953;SDS011;65893;51.698;-0.292;2023-07-31T02:53:33;7.07;;;1.63;;
76953;SDS011;65893;51.698;-0.292;2023-07-31T02:55:59;4.55;;;1.75;;
76953;SDS011;65893;51.698;-0.292;2023-07-31T02:58:25;5.28;;;1.48;;
76953;SDS011;65893;51.698;-0.292;2023-07-31T03:00:51;5.90;;;1.50;;
76953;SDS011;65893;51.698;-0.292;2023-07-31T03:03:17;7.15;;;1.17;;
76953;SDS011;65893;51.698;-0.292;2023-07-31T03:05:43;4.55;;;1.27;;
76953;SDS011;65893;51.698;-0.292;2023-07-31T03:08:09;3.90;;;1.33;;
76953;SDS011;65893;51.698;-0.292;2023-07-31T03:10:35;5.72;;;1.20;;
76953;SDS011;65893;51.698;-0.292;2023-07-31T03:13:01;3.45;;;0.90;;
76953;SDS011;65893;51.698;-0.292;2023-07-31T03:15:27;6.43;;;1.00;;
76953;SDS011;65893;51.698;-0.292;2023-07-31T03:17:53;4.80;;;2.00;;
76953;SDS011;65893;51.698;-0.292;2023-07-31T03:20:19;4.07;;;1.23;;
76953;SDS011;65893;51.698;-0.292;2023-07-31T03:22:45;3.58;;;1.30;;
76953;SDS011;65893;51.698;-0.292;2023-07-31T03:25:11;6.28;;;1.40;;
76953;SDS011;65893;51.698;-0.292;2023-07-31T03:27:37;3.83;;;1.05;;
76953;SDS011;65893;51.698;-0.292;2023-07-31T03:30:03;3.85;;;0.93;;
76953;SDS011;65893;51.698;-0.292;2023-07-31T03:32:29;5.45;;;1.58;;
76953;SDS011;65893;51.698;-0.292;2023-07-31T03:34:55;5.20;;;1.08;;
76953;SDS011;65893;51.698;-0.292;2023-07-31T03:37:21;5.40;;;1.40;;
76953;SDS011;65893;51.698;-0.292;2023-07-31T03:39:47;5.05;;;1.10;;
76953;SDS011;65893;51.698;-0.292;2023-07-31T03:42:13;4.40;;;1.30;;
76953;SDS011;65893;51.698;-0.292;2023-07-31T03:44:39;3.88;;;0.98;;
76953;SDS011;65893;51.698;-0.292;2023-07-31T03:47:05;6.15;;;1.45;;
76953;SDS011;65893;51.698;-0.292;2023-07-31T03:49:31;3.42;;;1.70;;
76953;SDS011;65893;51.698;-0.292;2023-07-31T03:51:57;2.92;;;0.85;;
76953;SDS011;65893;51.698;-0.292;2023-07-31T03:54:23;4.97;;;1.20;;
76953;SDS011;65893;51.698;-0.292;2023-07-31T03:56:49;3.53;;;0.95;;
76953;SDS011;65893;51.698;-0.292;2023-07-31T03:59:15;5.55;;;1.40;;
76953;SDS011;65893;51.698;-0.292;2023-07-31T04:01:41;6.75;;;1.45;;
76953;SDS011;65893;51.698;-0.292;2023-07-31T04:04:08;5.15;;;1.05;;
76953;SDS011;65893;51.698;-0.292;2023-07-31T04:06:34;7.38;;;1.70;;
76953;SDS011;65893;51.698;-0.292;2023-07-31T04:09:00;4.63;;;1.65;;
76953;SDS011;65893;51.698;-0.292;2023-07-31T04:11:26;5.85;;;1.10;;
76953;SDS011;65893;51.698;-0.292;2023-07-31T04:13:52;5.95;;;1.50;;
76953;SDS011;65893;51.698;-0.292;2023-07-31T04:16:18;6.88;;;1.50;;
76953;SDS011;65893;51.698;-0.292;2023-07-31T04:18:44;8.85;;;2.13;;
76953;SDS011;65893;51.698;-0.292;2023-07-31T04:21:10;4.70;;;1.55;;
76953;SDS011;65893;51.698;-0.292;2023-07-31T04:23:36;5.20;;;1.40;;
76953;SDS011;65893;51.698;-0.292;2023-07-31T04:26:02;12.45;;;2.47;;
76953;SDS011;65893;51.698;-0.292;2023-07-31T04:28:28;7.18;;;1.60;;
76953;SDS011;65893;51.698;-0.292;2023-07-31T04:30:56;9.10;;;1.40;;
76953;SDS011;65893;51.698;-0.292;2023-07-31T04:33:22;13.90;;;1.70;;
76953;SDS011;65893;51.698;-0.292;2023-07-31T04:35:50;5.20;;;1.45;;
76953;SDS011;65893;51.698;-0.292;2023-07-31T04:38:17;4.85;;;1.35;;
76953;SDS011;65893;51.698;-0.292;2023-07-31T04:40:44;5.38;;;1.40;;
76953;SDS011;65893;51.698;-0.292;2023-07-31T04:43:10;6.65;;;1.63;;
76953;SDS011;65893;51.698;-0.292;2023-07-31T04:45:36;5.82;;;1.52;;
76953;SDS011;65893;51.698;-0.292;2023-07-31T04:48:02;8.75;;;1.98;;
76953;SDS011;65893;51.698;-0.292;2023-07-31T04:50:28;3.30;;;1.20;;
76953;SDS011;65893;51.698;-0.292;2023-07-31T04:52:56;7.32;;;1.70;;
76953;SDS011;65893;51.698;-0.292;2023-07-31T04:55:23;7.55;;;1.58;;
76953;SDS011;65893;51.698;-0.292;2023-07-31T04:57:49;6.88;;;1.42;;
76953;SDS011;65893;51.698;-0.292;2023-07-31T05:00:15;6.28;;;1.73;;
76953;SDS011;65893;51.698;-0.292;2023-07-31T05:02:41;7.32;;;2.17;;
76953;SDS011;65893;51.698;-0.292;2023-07-31T05:05:07;6.60;;;1.75;;
76953;SDS011;65893;51.698;-0.292;2023-07-31T05:07:33;8.57;;;1.70;;
76953;SDS011;65893;51.698;-0.292;2023-07-31T05:09:59;3.88;;;1.45;;
76953;SDS011;65893;51.698;-0.292;2023-07-31T05:12:25;4.32;;;1.00;;
76953;SDS011;65893;51.698;-0.292;2023-07-31T05:14:51;7.82;;;1.75;;
76953;SDS011;65893;51.698;-0.292;2023-07-31T05:17:17;6.00;;;1.10;;
76953;SDS011;65893;51.698;-0.292;2023-07-31T05:19:43;6.05;;;1.42;;
76953;SDS011;65893;51.698;-0.292;2023-07-31T05:22:09;5.05;;;1.30;;
76953;SDS011;65893;51.698;-0.292;2023-07-31T05:24:35;5.70;;;1.48;;
76953;SDS011;65893;51.698;-0.292;2023-07-31T05:27:02;8.90;;;1.50;;
76953;SDS011;65893;51.698;-0.292;2023-07-31T05:29:28;3.92;;;1.30;;
76953;SDS011;65893;51.698;-0.292;2023-07-31T05:31:54;5.38;;;1.63;;
76953;SDS011;65893;51.698;-0.292;2023-07-31T05:34:20;7.47;;;1.98;;
76953;SDS011;65893;51.698;-0.292;2023-07-31T05:36:46;9.93;;;1.80;;
76953;SDS011;65893;51.698;-0.292;2023-07-31T05:39:12;7.75;;;1.58;;
76953;SDS011;65893;51.698;-0.292;2023-07-31T05:41:38;13.68;;;2.08;;
76953;SDS011;65893;51.698;-0.292;2023-07-31T05:44:04;5.28;;;1.27;;
76953;SDS011;65893;51.698;-0.292;2023-07-31T05:46:30;4.70;;;1.23;;
76953;SDS011;65893;51.698;-0.292;2023-07-31T05:48:56;10.48;;;1.23;;
76953;SDS011;65893;51.698;-0.292;2023-07-31T05:51:22;5.00;;;1.35;;
76953;SDS011;65893;51.698;-0.292;2023-07-31T05:53:48;7.05;;;1.35;;
76953;SDS011;65893;51.698;-0.292;2023-07-31T05:56:14;6.53;;;1.70;;
76953;SDS011;65893;51.698;-0.292;2023-07-31T05:58:41;5.75;;;1.15;;
76953;SDS011;65893;51.698;-0.292;2023-07-31T06:01:07;5.72;;;1.15;;
76953;SDS011;65893;51.698;-0.292;2023-07-31T06:03:33;4.30;;;1.00;;
76953;SDS011;65893;51.698;-0.292;2023-07-31T06:05:59;5.38;;;1.15;;
76953;SDS011;65893;51.698;-0.292;2023-07-31T06:08:25;4.20;;;0.90;;
76953;SDS011;65893;51.698;-0.292;2023-07-31T06:10:51;5.68;;;1.30;;
76953;SDS011;65893;51.698;-0.292;2023-07-31T06:13:17;5.47;;;1.17;;
76953;SDS011;65893;51.698;-0.292;2023-07-31T06:15:43;6.18;;;1.50;;
76953;SDS011;65893;51.698;-0.292;2023-07-31T06:18:10;6.38;;;2.35;;
76953;SDS011;65893;51.698;-0.292;2023-07-31T06:20:36;6.35;;;1.40;;
76953;SDS011;65893;51.698;-0.292;2023-07-31T06:23:02;8.57;;;1.95;;
76953;SDS011;65893;51.698;-0.292;2023-07-31T06:25:28;4.63;;;1.25;;
76953;SDS011;65893;51.698;-0.292;2023-07-31T06:27:55;3.30;;;1.00;;
76953;SDS011;65893;51.698;-0.292;2023-07-31T06:30:21;2.10;;;0.80;;
76953;SDS011;65893;51.698;-0.292;2023-07-31T06:32:47;4.70;;;1.08;;
76953;SDS011;65893;51.698;-0.292;2023-07-31T06:35:13;5.60;;;1.38;;
76953;SDS011;65893;51.698;-0.292;2023-07-31T06:37:39;1.98;;;0.70;;
76953;SDS011;65893;51.698;-0.292;2023-07-31T06:40:08;4.93;;;0.90;;
76953;SDS011;65893;51.698;-0.292;2023-07-31T06:42:34;4.32;;;0.93;;
76953;SDS011;65893;51.698;-0.292;2023-07-31T06:45:01;3.83;;;0.82;;
76953;SDS011;65893;51.698;-0.292;2023-07-31T06:47:27;4.35;;;1.00;;
76953;SDS011;65893;51.698;-0.292;2023-07-31T06:49:53;3.63;;;1.25;;
76953;SDS011;65893;51.698;-0.292;2023-07-31T06:52:19;4.90;;;1.33;;
76953;SDS011;65893;51.698;-0.292;2023-07-31T06:54:57;9.80;;;0.90;;
76953;SDS011;65893;51.698;-0.292;2023-07-31T06:57:25;5.35;;;1.08;;
76953;SDS011;65893;51.698;-0.292;2023-07-31T06:59:51;3.35;;;0.85;;
76953;SDS011;65893;51.698;-0.292;2023-07-31T07:02:17;3.22;;;0.82;;
76953;SDS011;65893;51.698;-0.292;2023-07-31T07:04:43;7.25;;;0.90;;
76953;SDS011;65893;51.698;-0.292;2023-07-31T07:07:09;5.75;;;1.10;;
76953;SDS011;65893;51.698;-0.292;2023-07-31T07:09:35;2.67;;;0.75;;
76953;SDS011;65893;51.698;-0.292;2023-07-31T07:12:01;3.63;;;0.77;;
76953;SDS011;65893;51.698;-0.292;2023-07-31T07:14:27;3.85;;;1.10;;
76953;SDS011;65893;51.698;-0.292;2023-07-31T07:16:53;5.20;;;0.85;;
76953;SDS011;65893;51.698;-0.292;2023-07-31T07:19:19;5.40;;;1.70;;
76953;SDS011;65893;51.698;-0.292;2023-07-31T07:21:45;3.92;;;0.88;;
76953;SDS011;65893;51.698;-0.292;2023-07-31T07:24:11;9.32;;;2.35;;
76953;SDS011;65893;51.698;-0.292;2023-07-31T07:26:37;2.35;;;0.70;;
76953;SDS011;65893;51.698;-0.292;2023-07-31T07:29:03;6.85;;;0.80;;
76953;SDS011;65893;51.698;-0.292;2023-07-31T07:31:32;4.50;;;1.17;;
76953;SDS011;65893;51.698;-0.292;2023-07-31T07:33:59;5.38;;;1.00;;
76953;SDS011;65893;51.698;-0.292;2023-07-31T07:36:27;2.95;;;0.90;;
76953;SDS011;65893;51.698;-0.292;2023-07-31T07:38:53;3.45;;;1.05;;
76953;SDS011;65893;51.698;-0.292;2023-07-31T07:41:19;3.40;;;0.93;;
76953;SDS011;65893;51.698;-0.292;2023-07-31T07:43:45;8.23;;;1.67;;
76953;SDS011;65893;51.698;-0.292;2023-07-31T07:46:11;2.95;;;1.00;;
76953;SDS011;65893;51.698;-0.292;2023-07-31T07:48:37;2.00;;;1.00;;
76953;SDS011;65893;51.698;-0.292;2023-07-31T07:51:03;4.32;;;0.98;;
76953;SDS011;65893;51.698;-0.292;2023-07-31T07:53:29;6.85;;;0.98;;
76953;SDS011;65893;51.698;-0.292;2023-07-31T07:55:55;2.83;;;0.90;;
76953;SDS011;65893;51.698;-0.292;2023-07-31T07:58:21;6.72;;;0.90;;
76953;SDS011;65893;51.698;-0.292;2023-07-31T08:00:48;6.97;;;1.13;;
76953;SDS011;65893;51.698;-0.292;2023-07-31T08:03:14;7.63;;;1.40;;
76953;SDS011;65893;51.698;-0.292;2023-07-31T08:05:42;7.78;;;1.65;;
76953;SDS011;65893;51.698;-0.292;2023-07-31T08:08:08;10.18;;;2.25;;
76953;SDS011;65893;51.698;-0.292;2023-07-31T08:10:33;4.70;;;1.50;;
76953;SDS011;65893;51.698;-0.292;2023-07-31T08:12:59;9.23;;;1.73;;
76953;SDS011;65893;51.698;-0.292;2023-07-31T08:15:25;6.38;;;1.90;;
76953;SDS011;65893;51.698;-0.292;2023-07-31T08:17:51;4.88;;;1.60;;
76953;SDS011;65893;51.698;-0.292;2023-07-31T08:20:17;5.05;;;1.63;;
76953;SDS011;65893;51.698;-0.292;2023-07-31T08:22:43;6.78;;;2.13;;
76953;SDS011;65893;51.698;-0.292;2023-07-31T08:25:10;2.80;;;0.85;;
76953;SDS011;65893;51.698;-0.292;2023-07-31T08:27:36;5.78;;;1.48;;
76953;SDS011;65893;51.698;-0.292;2023-07-31T08:30:02;6.35;;;2.67;;
76953;SDS011;65893;51.698;-0.292;2023-07-31T08:32:28;3.72;;;1.10;;
76953;SDS011;65893;51.698;-0.292;2023-07-31T08:34:54;5.15;;;1.50;;
76953;SDS011;65893;51.698;-0.292;2023-07-31T08:37:20;7.15;;;2.45;;
76953;SDS011;65893;51.698;-0.292;2023-07-31T08:39:46;8.65;;;2.95;;
76953;SDS011;65893;51.698;-0.292;2023-07-31T08:42:12;7.63;;;2.78;;
76953;SDS011;65893;51.698;-0.292;2023-07-31T08:44:38;7.70;;;2.80;;
76953;SDS011;65893;51.698;-0.292;2023-07-31T08:47:04;9.85;;;3.47;;
76953;SDS011;65893;51.698;-0.292;2023-07-31T08:49:30;7.70;;;2.15;;
76953;SDS011;65893;51.698;-0.292;2023-07-31T08:51:56;6.35;;;2.40;;
76953;SDS011;65893;51.698;-0.292;2023-07-31T08:54:23;11.40;;;2.53;;
76953;SDS011;65893;51.698;-0.292;2023-07-31T08:56:49;17.30;;;2.17;;
76953;SDS011;65893;51.698;-0.292;2023-07-31T08:59:23;7.10;;;2.50;;
76953;SDS011;65893;51.698;-0.292;2023-07-31T09:01:50;7.82;;;1.85;;
76953;SDS011;65893;51.698;-0.292;2023-07-31T09:04:18;8.55;;;2.33;;
76953;SDS011;65893;51.698;-0.292;2023-07-31T09:06:45;9.23;;;2.40;;
76953;SDS011;65893;51.698;-0.292;2023-07-31T09:09:13;6.80;;;2.30;;
76953;SDS011;65893;51.698;-0.292;2023-07-31T09:11:40;4.95;;;1.55;;
76953;SDS011;65893;51.698;-0.292;2023-07-31T09:14:08;7.80;;;1.63;;
76953;SDS011;65893;51.698;-0.292;2023-07-31T09:16:34;6.97;;;1.48;;
76953;SDS011;65893;51.698;-0.292;2023-07-31T09:19:00;5.72;;;1.70;;
76953;SDS011;65893;51.698;-0.292;2023-07-31T09:21:28;4.63;;;1.50;;
76953;SDS011;65893;51.698;-0.292;2023-07-31T09:23:54;5.40;;;1.50;;
76953;SDS011;65893;51.698;-0.292;2023-07-31T09:26:30;4.95;;;1.70;;
76953;SDS011;65893;51.698;-0.292;2023-07-31T09:28:57;5.30;;;1.67;;
76953;SDS011;65893;51.698;-0.292;2023-07-31T09:34:18;5.97;;;1.65;;
76953;SDS011;65893;51.698;-0.292;2023-07-31T09:36:45;3.42;;;1.10;;
76953;SDS011;65893;51.698;-0.292;2023-07-31T09:39:12;3.97;;;1.17;;
76953;SDS011;65893;51.698;-0.292;2023-07-31T09:41:39;7.25;;;1.58;;
76953;SDS011;65893;51.698;-0.292;2023-07-31T09:44:06;9.73;;;2.30;;
76953;SDS011;65893;51.698;-0.292;2023-07-31T09:46:34;6.55;;;1.67;;
76953;SDS011;65893;51.698;-0.292;2023-07-31T09:49:10;3.03;;;1.08;;
76953;SDS011;65893;51.698;-0.292;2023-07-31T09:51:37;5.72;;;1.48;;
76953;SDS011;65893;51.698;-0.292;2023-07-31T09:54:04;3.75;;;1.30;;
76953;SDS011;65893;51.698;-0.292;2023-07-31T09:56:30;4.30;;;1.23;;
76953;SDS011;65893;51.698;-0.292;2023-07-31T09:58:57;3.97;;;1.10;;
76953;SDS011;65893;51.698;-0.292;2023-07-31T10:01:23;5.70;;;2.75;;
76953;SDS011;65893;51.698;-0.292;2023-07-31T10:03:49;3.33;;;1.33;;
76953;SDS011;65893;51.698;-0.292;2023-07-31T10:06:15;5.35;;;1.20;;
76953;SDS011;65893;51.698;-0.292;2023-07-31T10:08:44;5.10;;;1.42;;
76953;SDS011;65893;51.698;-0.292;2023-07-31T10:11:12;6.13;;;1.40;;
76953;SDS011;65893;51.698;-0.292;2023-07-31T10:13:39;4.13;;;1.35;;
76953;SDS011;65893;51.698;-0.292;2023-07-31T10:16:07;6.25;;;1.30;;
76953;SDS011;65893;51.698;-0.292;2023-07-31T10:18:33;2.92;;;0.70;;
76953;SDS011;65893;51.698;-0.292;2023-07-31T10:21:00;3.75;;;1.20;;
76953;SDS011;65893;51.698;-0.292;2023-07-31T10:23:27;5.68;;;1.48;;
76953;SDS011;65893;51.698;-0.292;2023-07-31T10:25:53;4.90;;;1.15;;
76953;SDS011;65893;51.698;-0.292;2023-07-31T10:28:20;4.30;;;1.23;;
76953;SDS011;65893;51.698;-0.292;2023-07-31T10:30:47;4.82;;;1.42;;
76953;SDS011;65893;51.698;-0.292;2023-07-31T10:33:15;2.92;;;0.80;;
76953;SDS011;65893;51.698;-0.292;2023-07-31T10:35:41;4.53;;;1.30;;
76953;SDS011;65893;51.698;-0.292;2023-07-31T10:38:10;6.38;;;1.55;;
76953;SDS011;65893;51.698;-0.292;2023-07-31T10:40:37;3.28;;;1.27;;
76953;SDS011;65893;51.698;-0.292;2023-07-31T10:43:03;6.03;;;1.48;;
76953;SDS011;65893;51.698;-0.292;2023-07-31T10:45:34;4.75;;;1.10;;
76953;SDS011;65893;51.698;-0.292;2023-07-31T10:48:07;3.33;;;1.20;;
76953;SDS011;65893;51.698;-0.292;2023-07-31T10:50:38;6.00;;;1.67;;
76953;SDS011;65893;51.698;-0.292;2023-07-31T10:53:05;7.05;;;1.30;;
76953;SDS011;65893;51.698;-0.292;2023-07-31T10:55:41;4.43;;;1.20;;
76953;SDS011;65893;51.698;-0.292;2023-07-31T10:58:09;3.70;;;1.10;;
76953;SDS011;65893;51.698;-0.292;2023-07-31T11:00:39;2.83;;;1.23;;
76953;SDS011;65893;51.698;-0.292;2023-07-31T11:03:09;6.22;;;1.48;;
76953;SDS011;65893;51.698;-0.292;2023-07-31T11:05:43;5.68;;;1.45;;
76953;SDS011;65893;51.698;-0.292;2023-07-31T11:08:29;4.82;;;1.42;;
76953;SDS011;65893;51.698;-0.292;2023-07-31T11:13:31;3.95;;;1.30;;
76953;SDS011;65893;51.698;-0.292;2023-07-31T11:15:57;6.78;;;2.10;;
76953;SDS011;65893;51.698;-0.292;2023-07-31T11:18:23;8.27;;;1.67;;
76953;SDS011;65893;51.698;-0.292;2023-07-31T11:20:49;5.45;;;1.52;;
76953;SDS011;65893;51.698;-0.292;2023-07-31T11:23:16;2.97;;;0.95;;
76953;SDS011;65893;51.698;-0.292;2023-07-31T11:25:42;5.95;;;1.33;;
76953;SDS011;65893;51.698;-0.292;2023-07-31T11:28:12;5.82;;;1.38;;
76953;SDS011;65893;51.698;-0.292;2023-07-31T11:30:38;7.13;;;1.70;;
76953;SDS011;65893;51.698;-0.292;2023-07-31T11:33:06;4.85;;;1.35;;
76953;SDS011;65893;51.698;-0.292;2023-07-31T11:35:40;7.90;;;2.45;;
76953;SDS011;65893;51.698;-0.292;2023-07-31T11:38:10;4.53;;;1.30;;
76953;SDS011;65893;51.698;-0.292;2023-07-31T11:40:42;6.00;;;1.80;;
76953;SDS011;65893;51.698;-0.292;2023-07-31T11:43:08;8.50;;;1.60;;
76953;SDS011;65893;51.698;-0.292;2023-07-31T11:45:36;4.18;;;1.65;;
76953;SDS011;65893;51.698;-0.292;2023-07-31T11:48:02;10.52;;;2.97;;
76953;SDS011;65893;51.698;-0.292;2023-07-31T11:50:28;8.93;;;2.28;;
76953;SDS011;65893;51.698;-0.292;2023-07-31T11:52:59;4.18;;;1.30;;
76953;SDS011;65893;51.698;-0.292;2023-07-31T11:55:26;8.70;;;3.17;;
76953;SDS011;65893;51.698;-0.292;2023-07-31T11:57:52;8.43;;;2.75;;
76953;SDS011;65893;51.698;-0.292;2023-07-31T12:00:19;9.10;;;2.20;;
76953;SDS011;65893;51.698;-0.292;2023-07-31T12:02:45;5.97;;;2.03;;
76953;SDS011;65893;51.698;-0.292;2023-07-31T12:05:13;6.97;;;1.77;;
76953;SDS011;65893;51.698;-0.292;2023-07-31T12:07:58;6.85;;;2.08;;
76953;SDS011;65893;51.698;-0.292;2023-07-31T12:10:28;6.70;;;1.63;;
76953;SDS011;65893;51.698;-0.292;2023-07-31T12:13:04;6.32;;;1.50;;
76953;SDS011;65893;51.698;-0.292;2023-07-31T12:15:38;5.25;;;1.88;;
76953;SDS011;65893;51.698;-0.292;2023-07-31T12:18:08;6.88;;;1.90;;
76953;SDS011;65893;51.698;-0.292;2023-07-31T12:20:35;7.20;;;1.88;;
76953;SDS011;65893;51.698;-0.292;2023-07-31T12:23:01;6.60;;;2.55;;
76953;SDS011;65893;51.698;-0.292;2023-07-31T12:25:31;6.72;;;1.88;;
76953;SDS011;65893;51.698;-0.292;2023-07-31T12:27:57;6.32;;;2.30;;
76953;SDS011;65893;51.698;-0.292;2023-07-31T12:30:27;6.05;;;1.65;;
76953;SDS011;65893;51.698;-0.292;2023-07-31T12:32:53;6.63;;;1.98;;
76953;SDS011;65893;51.698;-0.292;2023-07-31T12:35:19;10.73;;;2.40;;
76953;SDS011;65893;51.698;-0.292;2023-07-31T12:37:45;10.52;;;1.90;;
76953;SDS011;65893;51.698;-0.292;2023-07-31T12:40:11;5.82;;;2.30;;
76953;SDS011;65893;51.698;-0.292;2023-07-31T12:45:09;8.07;;;2.30;;
76953;SDS011;65893;51.698;-0.292;2023-07-31T12:47:36;6.45;;;2.30;;
76953;SDS011;65893;51.698;-0.292;2023-07-31T12:50:02;9.80;;;2.50;;
76953;SDS011;65893;51.698;-0.292;2023-07-31T12:52:28;5.35;;;1.80;;
76953;SDS011;65893;51.698;-0.292;2023-07-31T12:54:54;11.48;;;2.72;;
76953;SDS011;65893;51.698;-0.292;2023-07-31T12:57:20;7.82;;;2.03;;
76953;SDS011;65893;51.698;-0.292;2023-07-31T12:59:46;11.63;;;2.50;;
76953;SDS011;65893;51.698;-0.292;2023-07-31T13:02:12;10.27;;;3.38;;
76953;SDS011;65893;51.698;-0.292;2023-07-31T13:04:39;16.23;;;2.90;;
76953;SDS011;65893;51.698;-0.292;2023-07-31T13:07:05;11.25;;;3.00;;
76953;SDS011;65893;51.698;-0.292;2023-07-31T13:09:31;11.65;;;2.33;;
76953;SDS011;65893;51.698;-0.292;2023-07-31T13:11:57;9.88;;;3.17;;
76953;SDS011;65893;51.698;-0.292;2023-07-31T13:14:23;9.48;;;2.95;;
76953;SDS011;65893;51.698;-0.292;2023-07-31T13:16:49;8.55;;;2.60;;
76953;SDS011;65893;51.698;-0.292;2023-07-31T13:19:15;10.38;;;2.97;;
76953;SDS011;65893;51.698;-0.292;2023-07-31T13:21:41;8.95;;;2.85;;
76953;SDS011;65893;51.698;-0.292;2023-07-31T13:24:07;6.95;;;2.83;;
76953;SDS011;65893;51.698;-0.292;2023-07-31T13:26:33;8.20;;;2.65;;
76953;SDS011;65893;51.698;-0.292;2023-07-31T13:29:00;10.63;;;3.13;;
76953;SDS011;65893;51.698;-0.292;2023-07-31T13:31:26;10.88;;;3.25;;
76953;SDS011;65893;51.698;-0.292;2023-07-31T13:33:52;10.98;;;2.97;;
76953;SDS011;65893;51.698;-0.292;2023-07-31T13:36:18;13.55;;;2.88;;
76953;SDS011;65893;51.698;-0.292;2023-07-31T13:38:44;12.70;;;4.55;;
76953;SDS011;65893;51.698;-0.292;2023-07-31T13:41:11;8.10;;;2.83;;
76953;SDS011;65893;51.698;-0.292;2023-07-31T13:43:38;8.38;;;2.97;;
76953;SDS011;65893;51.698;-0.292;2023-07-31T13:46:04;10.98;;;3.50;;
76953;SDS011;65893;51.698;-0.292;2023-07-31T13:48:35;10.90;;;3.22;;
76953;SDS011;65893;51.698;-0.292;2023-07-31T13:51:03;13.07;;;3.50;;
76953;SDS011;65893;51.698;-0.292;2023-07-31T13:53:29;10.73;;;2.80;;
76953;SDS011;65893;51.698;-0.292;2023-07-31T13:55:55;8.90;;;2.85;;
76953;SDS011;65893;51.698;-0.292;2023-07-31T13:58:21;8.18;;;2.72;;
76953;SDS011;65893;51.698;-0.292;2023-07-31T14:00:47;9.70;;;2.08;;
76953;SDS011;65893;51.698;-0.292;2023-07-31T14:03:13;12.93;;;3.60;;
76953;SDS011;65893;51.698;-0.292;2023-07-31T14:05:39;9.35;;;3.15;;
76953;SDS011;65893;51.698;-0.292;2023-07-31T14:08:07;11.27;;;2.53;;
76953;SDS011;65893;51.698;-0.292;2023-07-31T14:10:33;11.60;;;3.20;;
76953;SDS011;65893;51.698;-0.292;2023-07-31T14:12:59;9.82;;;3.00;;
76953;SDS011;65893;51.698;-0.292;2023-07-31T14:15:26;11.27;;;3.00;;
76953;SDS011;65893;51.698;-0.292;2023-07-31T14:17:52;12.05;;;4.25;;
76953;SDS011;65893;51.698;-0.292;2023-07-31T14:20:18;14.75;;;3.80;;
76953;SDS011;65893;51.698;-0.292;2023-07-31T14:22:44;9.30;;;2.97;;
76953;SDS011;65893;51.698;-0.292;2023-07-31T14:25:10;12.05;;;3.25;;
76953;SDS011;65893;51.698;-0.292;2023-07-31T14:27:36;11.88;;;3.00;;
76953;SDS011;65893;51.698;-0.292;2023-07-31T14:30:02;15.13;;;4.05;;
76953;SDS011;65893;51.698;-0.292;2023-07-31T14:32:29;13.55;;;3.85;;
76953;SDS011;65893;51.698;-0.292;2023-07-31T14:34:55;11.30;;;3.60;;
76953;SDS011;65893;51.698;-0.292;2023-07-31T14:37:21;16.52;;;3.53;;
76953;SDS011;65893;51.698;-0.292;2023-07-31T14:39:47;12.98;;;3.00;;
76953;SDS011;65893;51.698;-0.292;2023-07-31T14:42:14;12.85;;;3.28;;
76953;SDS011;65893;51.698;-0.292;2023-07-31T14:44:43;11.52;;;3.92;;